sensor_id;sensor_type;location;lat;lon;timestamp;pressure;altitude;pressure_sealevel;temperature;humidity
60583;BME280;46415;47.536;19.066;2022-11-20T00:01:24;100194.91;;;1.41;100.00
60583;BME280;46415;47.536;19.066;2022-11-20T00:04:27;100187.25;;;1.38;100.00
60583;BME280;46415;47.536;19.066;2022-11-20T00:07:30;100183.06;;;1.31;100.00
60583;BME280;46415;47.536;19.066;2022-11-20T00:10:36;100176.28;;;1.27;100.00
60583;BME280;46415;47.536;19.066;2022-11-20T00:13:39;100161.03;;;1.19;100.00
60583;BME280;46415;47.536;19.066;2022-11-20T00:16:41;100157.69;;;1.12;100.00
60583;BME280;46415;47.536;19.066;2022-11-20T00:19:44;100168.75;;;1.10;100.00
60583;BME280;46415;47.536;19.066;2022-11-20T00:22:47;100156.00;;;1.10;100.00
60583;BME280;46415;47.536;19.066;2022-11-20T00:25:49;100161.09;;;1.08;100.00
60583;BME280;46415;47.536;19.066;2022-11-20T00:28:54;100175.59;;;1.08;100.00
60583;BME280;46415;47.536;19.066;2022-11-20T00:31:57;100173.88;;;1.10;100.00
60583;BME280;46415;47.536;19.066;2022-11-20T00:34:59;100181.53;;;1.11;100.00
60583;BME280;46415;47.536;19.066;2022-11-20T00:38:02;100164.44;;;1.18;100.00
60583;BME280;46415;47.536;19.066;2022-11-20T00:41:08;100178.03;;;1.21;100.00
60583;BME280;46415;47.536;19.066;2022-11-20T00:44:10;100200.22;;;1.16;100.00
60583;BME280;46415;47.536;19.066;2022-11-20T00:47:13;100204.44;;;1.22;100.00
60583;BME280;46415;47.536;19.066;2022-11-20T00:50:16;100200.97;;;1.28;100.00
60583;BME280;46415;47.536;19.066;2022-11-20T00:53:18;100189.97;;;1.22;100.00
60583;BME280;46415;47.536;19.066;2022-11-20T00:56:21;100181.50;;;1.16;100.00
60583;BME280;46415;47.536;19.066;2022-11-20T00:59:24;100173.03;;;1.09;100.00
60583;BME280;46415;47.536;19.066;2022-11-20T01:02:26;100171.22;;;1.23;100.00
60583;BME280;46415;47.536;19.066;2022-11-20T01:05:34;100179.00;;;1.10;100.00
60583;BME280;46415;47.536;19.066;2022-11-20T01:08:37;100188.41;;;1.05;100.00
60583;BME280;46415;47.536;19.066;2022-11-20T01:11:42;100180.75;;;1.02;100.00
60583;BME280;46415;47.536;19.066;2022-11-20T01:14:47;100183.34;;;1.00;100.00
60583;BME280;46415;47.536;19.066;2022-11-20T01:17:49;100180.75;;;1.02;100.00
60583;BME280;46415;47.536;19.066;2022-11-20T01:20:52;100176.53;;;0.99;100.00
60583;BME280;46415;47.536;19.066;2022-11-20T01:23:55;100180.84;;;0.93;100.00
60583;BME280;46415;47.536;19.066;2022-11-20T01:26:58;100189.25;;;1.04;100.00
60583;BME280;46415;47.536;19.066;2022-11-20T01:30:01;100191.81;;;1.05;100.00
60583;BME280;46415;47.536;19.066;2022-11-20T01:33:03;100181.59;;;1.02;100.00
60583;BME280;46415;47.536;19.066;2022-11-20T01:36:07;100173.88;;;1.10;100.00
60583;BME280;46415;47.536;19.066;2022-11-20T01:39:13;100166.16;;;1.14;100.00
60583;BME280;46415;47.536;19.066;2022-11-20T01:42:16;100161.09;;;1.11;100.00
60583;BME280;46415;47.536;19.066;2022-11-20T01:45:56;100150.78;;;1.20;100.00
60583;BME280;46415;47.536;19.066;2022-11-20T01:49:16;100154.16;;;1.22;100.00
60583;BME280;46415;47.536;19.066;2022-11-20T01:52:28;100147.38;;;1.20;100.00
60583;BME280;46415;47.536;19.066;2022-11-20T01:55:36;100145.66;;;1.20;100.00
60583;BME280;46415;47.536;19.066;2022-11-20T01:58:47;100144.00;;;1.16;100.00
60583;BME280;46415;47.536;19.066;2022-11-20T02:01:51;100130.31;;;1.20;100.00
60583;BME280;46415;47.536;19.066;2022-11-20T02:04:57;100146.44;;;1.27;100.00
60583;BME280;46415;47.536;19.066;2022-11-20T02:08:04;100143.09;;;1.20;100.00
60583;BME280;46415;47.536;19.066;2022-11-20T02:11:08;100132.81;;;1.28;100.00
60583;BME280;46415;47.536;19.066;2022-11-20T02:14:11;100139.63;;;1.26;100.00
60583;BME280;46415;47.536;19.066;2022-11-20T02:17:14;100145.59;;;1.30;100.00
60583;BME280;46415;47.536;19.066;2022-11-20T02:20:17;100143.00;;;1.33;100.00
60583;BME280;46415;47.536;19.066;2022-11-20T02:26:23;100139.69;;;1.25;100.00
60583;BME280;46415;47.536;19.066;2022-11-20T02:29:31;100148.91;;;1.38;100.00
60583;BME280;46415;47.536;19.066;2022-11-20T02:32:36;100155.75;;;1.34;100.00
60583;BME280;46415;47.536;19.066;2022-11-20T02:35:41;100146.38;;;1.36;100.00
60583;BME280;46415;47.536;19.066;2022-11-20T02:38:45;100136.16;;;1.33;100.00
60583;BME280;46415;47.536;19.066;2022-11-20T02:41:47;100120.72;;;1.44;100.00
60583;BME280;46415;47.536;19.066;2022-11-20T02:44:50;100121.41;;;1.58;100.00
60583;BME280;46415;47.536;19.066;2022-11-20T02:47:54;100122.34;;;1.49;100.00
60583;BME280;46415;47.536;19.066;2022-11-20T02:50:56;100121.59;;;1.43;100.00
60583;BME280;46415;47.536;19.066;2022-11-20T02:53:59;100118.16;;;1.44;100.00
60583;BME280;46415;47.536;19.066;2022-11-20T02:57:01;100129.22;;;1.44;100.00
60583;BME280;46415;47.536;19.066;2022-11-20T03:00:05;100128.44;;;1.38;100.00
60583;BME280;46415;47.536;19.066;2022-11-20T03:03:09;100122.59;;;1.30;100.00
60583;BME280;46415;47.536;19.066;2022-11-20T03:06:11;100115.56;;;1.47;100.00
60583;BME280;46415;47.536;19.066;2022-11-20T03:09:14;100101.16;;;1.41;100.00
60583;BME280;46415;47.536;19.066;2022-11-20T03:12:16;100104.56;;;1.39;100.00
60583;BME280;46415;47.536;19.066;2022-11-20T03:15:19;100111.41;;;1.38;100.00
60583;BME280;46415;47.536;19.066;2022-11-20T03:18:22;100113.16;;;1.32;100.00
60583;BME280;46415;47.536;19.066;2022-11-20T03:21:25;100105.50;;;1.32;100.00
60583;BME280;46415;47.536;19.066;2022-11-20T03:24:27;100109.75;;;1.34;100.00
60583;BME280;46415;47.536;19.066;2022-11-20T03:27:34;100123.38;;;1.35;100.00
60583;BME280;46415;47.536;19.066;2022-11-20T03:30:37;100130.22;;;1.33;100.00
60583;BME280;46415;47.536;19.066;2022-11-20T03:33:41;100138.72;;;1.36;100.00
60583;BME280;46415;47.536;19.066;2022-11-20T03:36:44;100138.72;;;1.35;100.00
60583;BME280;46415;47.536;19.066;2022-11-20T03:39:47;100133.53;;;1.41;100.00
60583;BME280;46415;47.536;19.066;2022-11-20T03:42:49;100120.69;;;1.48;100.00
60583;BME280;46415;47.536;19.066;2022-11-20T03:46:01;100124.03;;;1.52;100.00
60583;BME280;46415;47.536;19.066;2022-11-20T03:49:04;100110.53;;;1.39;100.00
60583;BME280;46415;47.536;19.066;2022-11-20T03:52:07;100110.47;;;1.45;100.00
60583;BME280;46415;47.536;19.066;2022-11-20T03:55:09;100111.37;;;1.40;100.00
60583;BME280;46415;47.536;19.066;2022-11-20T03:58:12;100112.25;;;1.37;100.00
60583;BME280;46415;47.536;19.066;2022-11-20T04:01:18;100107.84;;;1.50;100.00
60583;BME280;46415;47.536;19.066;2022-11-20T04:04:22;100107.06;;;1.43;100.00
60583;BME280;46415;47.536;19.066;2022-11-20T04:07:24;100120.66;;;1.50;100.00
60583;BME280;46415;47.536;19.066;2022-11-20T04:10:27;100106.22;;;1.46;100.00
60583;BME280;46415;47.536;19.066;2022-11-20T04:13:30;100108.75;;;1.46;100.00
60583;BME280;46415;47.536;19.066;2022-11-20T04:16:35;100102.75;;;1.50;100.00
60583;BME280;46415;47.536;19.066;2022-11-20T04:19:38;100100.19;;;1.51;100.00
60583;BME280;46415;47.536;19.066;2022-11-20T04:22:40;100101.00;;;1.55;100.00
60583;BME280;46415;47.536;19.066;2022-11-20T04:25:43;100094.22;;;1.51;100.00
60583;BME280;46415;47.536;19.066;2022-11-20T04:28:46;100085.69;;;1.52;100.00
60583;BME280;46415;47.536;19.066;2022-11-20T04:31:49;100079.81;;;1.44;100.00
60583;BME280;46415;47.536;19.066;2022-11-20T04:34:51;100078.91;;;1.48;100.00
60583;BME280;46415;47.536;19.066;2022-11-20T04:37:54;100076.38;;;1.45;100.00
60583;BME280;46415;47.536;19.066;2022-11-20T04:41:01;100074.63;;;1.50;100.00
60583;BME280;46415;47.536;19.066;2022-11-20T04:44:05;100078.88;;;1.51;100.00
60583;BME280;46415;47.536;19.066;2022-11-20T04:47:08;100084.78;;;1.56;100.00
60583;BME280;46415;47.536;19.066;2022-11-20T04:50:10;100083.12;;;1.53;100.00
60583;BME280;46415;47.536;19.066;2022-11-20T04:53:13;100081.47;;;1.48;100.00
60583;BME280;46415;47.536;19.066;2022-11-20T04:56:16;100062.66;;;1.53;100.00
60583;BME280;46415;47.536;19.066;2022-11-20T04:59:19;100050.66;;;1.60;100.00
60583;BME280;46415;47.536;19.066;2022-11-20T05:02:22;100052.44;;;1.52;100.00
60583;BME280;46415;47.536;19.066;2022-11-20T05:05:25;100052.38;;;1.56;100.00
60583;BME280;46415;47.536;19.066;2022-11-20T05:08:29;100053.28;;;1.54;100.00
60583;BME280;46415;47.536;19.066;2022-11-20T05:11:31;100051.53;;;1.57;100.00
60583;BME280;46415;47.536;19.066;2022-11-20T05:14:34;100058.41;;;1.54;100.00
60583;BME280;46415;47.536;19.066;2022-11-20T05:17:37;100070.41;;;1.49;100.00
60583;BME280;46415;47.536;19.066;2022-11-20T05:20:40;100070.41;;;1.49;100.00
60583;BME280;46415;47.536;19.066;2022-11-20T05:23:43;100060.97;;;1.52;100.00
60583;BME280;46415;47.536;19.066;2022-11-20T05:26:46;100062.59;;;1.58;100.00
60583;BME280;46415;47.536;19.066;2022-11-20T05:29:49;100040.50;;;1.51;100.00
60583;BME280;46415;47.536;19.066;2022-11-20T05:32:52;100029.44;;;1.52;100.00
60583;BME280;46415;47.536;19.066;2022-11-20T05:35:58;100021.75;;;1.53;100.00
60583;BME280;46415;47.536;19.066;2022-11-20T05:39:00;100026.03;;;1.50;100.00
60583;BME280;46415;47.536;19.066;2022-11-20T05:42:03;100019.19;;;1.55;100.00
60583;BME280;46415;47.536;19.066;2022-11-20T05:45:24;100030.22;;;1.55;100.00
60583;BME280;46415;47.536;19.066;2022-11-20T05:48:27;100027.66;;;1.57;100.00
60583;BME280;46415;47.536;19.066;2022-11-20T05:51:30;100032.78;;;1.57;100.00
60583;BME280;46415;47.536;19.066;2022-11-20T05:54:32;100045.59;;;1.54;100.00
60583;BME280;46415;47.536;19.066;2022-11-20T05:57:35;100039.59;;;1.58;100.00
60583;BME280;46415;47.536;19.066;2022-11-20T06:00:38;100049.75;;;1.61;100.00
60583;BME280;46415;47.536;19.066;2022-11-20T06:03:41;100058.25;;;1.63;100.00
60583;BME280;46415;47.536;19.066;2022-11-20T06:06:45;100058.25;;;1.66;100.00
60583;BME280;46415;47.536;19.066;2022-11-20T06:09:48;100064.16;;;1.68;100.00
60583;BME280;46415;47.536;19.066;2022-11-20T06:12:51;100060.72;;;1.71;100.00
60583;BME280;46415;47.536;19.066;2022-11-20T06:15:53;100064.16;;;1.70;100.00
60583;BME280;46415;47.536;19.066;2022-11-20T06:18:56;100076.94;;;1.71;100.00
60583;BME280;46415;47.536;19.066;2022-11-20T06:21:59;100060.72;;;1.72;100.00
60583;BME280;46415;47.536;19.066;2022-11-20T06:25:01;100052.19;;;1.72;100.00
60583;BME280;46415;47.536;19.066;2022-11-20T06:28:04;100049.69;;;1.67;100.00
60583;BME280;46415;47.536;19.066;2022-11-20T06:31:09;100048.72;;;1.76;100.00
60583;BME280;46415;47.536;19.066;2022-11-20T06:34:12;100062.47;;;1.69;100.00
60583;BME280;46415;47.536;19.066;2022-11-20T06:37:15;100073.47;;;1.75;100.00
60583;BME280;46415;47.536;19.066;2022-11-20T06:40:18;100080.28;;;1.76;100.00
60583;BME280;46415;47.536;19.066;2022-11-20T06:43:21;100081.81;;;1.89;100.00
60583;BME280;46415;47.536;19.066;2022-11-20T06:46:24;100089.50;;;1.88;100.00
60583;BME280;46415;47.536;19.066;2022-11-20T06:49:27;100092.00;;;1.91;100.00
60583;BME280;46415;47.536;19.066;2022-11-20T06:52:29;100099.72;;;1.89;100.00
60583;BME280;46415;47.536;19.066;2022-11-20T06:55:32;100100.53;;;1.91;100.00
60583;BME280;46415;47.536;19.066;2022-11-20T06:58:36;100092.75;;;2.00;100.00
60583;BME280;46415;47.536;19.066;2022-11-20T07:01:39;100086.62;;;2.09;100.00
60583;BME280;46415;47.536;19.066;2022-11-20T07:04:42;100092.50;;;2.19;100.00
60583;BME280;46415;47.536;19.066;2022-11-20T07:07:44;100084.56;;;2.34;100.00
60583;BME280;46415;47.536;19.066;2022-11-20T07:10:57;100086.28;;;2.35;100.00
60583;BME280;46415;47.536;19.066;2022-11-20T07:14:00;100083.78;;;2.30;100.00
60583;BME280;46415;47.536;19.066;2022-11-20T07:17:03;100078.66;;;2.30;100.00
60583;BME280;46415;47.536;19.066;2022-11-20T07:20:06;100078.56;;;2.38;100.00
60583;BME280;46415;47.536;19.066;2022-11-20T07:23:09;100083.59;;;2.44;100.00
60583;BME280;46415;47.536;19.066;2022-11-20T07:26:12;100105.72;;;2.46;100.00
60583;BME280;46415;47.536;19.066;2022-11-20T07:29:15;100120.22;;;2.49;100.00
60583;BME280;46415;47.536;19.066;2022-11-20T07:32:19;100106.59;;;2.47;100.00
60583;BME280;46415;47.536;19.066;2022-11-20T07:35:22;100113.47;;;2.43;100.00
60583;BME280;46415;47.536;19.066;2022-11-20T07:38:25;100118.63;;;2.42;100.00
60583;BME280;46415;47.536;19.066;2022-11-20T07:41:28;100119.47;;;2.42;100.00
60583;BME280;46415;47.536;19.066;2022-11-20T07:44:31;100113.44;;;2.45;100.00
60583;BME280;46415;47.536;19.066;2022-11-20T07:47:36;100113.34;;;2.51;100.00
60583;BME280;46415;47.536;19.066;2022-11-20T07:50:39;100114.22;;;2.50;100.00
60583;BME280;46415;47.536;19.066;2022-11-20T07:53:44;100114.31;;;2.44;100.00
60583;BME280;46415;47.536;19.066;2022-11-20T07:56:47;100111.59;;;2.56;100.00
60583;BME280;46415;47.536;19.066;2022-11-20T07:59:50;100113.91;;;2.68;100.00
60583;BME280;46415;47.536;19.066;2022-11-20T08:02:52;100117.03;;;2.88;100.00
60583;BME280;46415;47.536;19.066;2022-11-20T08:05:58;100112.75;;;2.87;100.00
60583;BME280;46415;47.536;19.066;2022-11-20T08:09:01;100110.00;;;2.98;100.00
60583;BME280;46415;47.536;19.066;2022-11-20T08:12:04;100093.63;;;3.08;100.00
60583;BME280;46415;47.536;19.066;2022-11-20T08:15:25;100093.47;;;3.16;100.00
60583;BME280;46415;47.536;19.066;2022-11-20T08:18:27;100088.06;;;3.31;100.00
60583;BME280;46415;47.536;19.066;2022-11-20T08:21:34;100097.28;;;3.40;100.00
60583;BME280;46415;47.536;19.066;2022-11-20T08:24:40;100105.56;;;3.55;100.00
60583;BME280;46415;47.536;19.066;2022-11-20T08:27:42;100104.59;;;3.61;100.00
60583;BME280;46415;47.536;19.066;2022-11-20T08:30:45;100105.94;;;3.79;100.00
60583;BME280;46415;47.536;19.066;2022-11-20T08:33:48;100087.00;;;3.84;100.00
60583;BME280;46415;47.536;19.066;2022-11-20T08:36:51;100083.28;;;3.99;100.00
60583;BME280;46415;47.536;19.066;2022-11-20T08:39:53;100089.78;;;4.14;100.00
60583;BME280;46415;47.536;19.066;2022-11-20T08:42:58;100096.41;;;4.24;100.00
60583;BME280;46415;47.536;19.066;2022-11-20T08:46:01;100104.66;;;4.38;100.00
60583;BME280;46415;47.536;19.066;2022-11-20T08:49:05;100107.84;;;4.47;100.00
60583;BME280;46415;47.536;19.066;2022-11-20T08:52:08;100103.91;;;4.70;100.00
60583;BME280;46415;47.536;19.066;2022-11-20T08:55:11;100105.28;;;4.83;100.00
60583;BME280;46415;47.536;19.066;2022-11-20T08:58:13;100098.31;;;4.88;100.00
60583;BME280;46415;47.536;19.066;2022-11-20T09:01:17;100105.28;;;4.83;100.00
60583;BME280;46415;47.536;19.066;2022-11-20T09:04:19;100110.09;;;4.61;100.00
60583;BME280;46415;47.536;19.066;2022-11-20T09:07:22;100114.72;;;4.47;100.00
60583;BME280;46415;47.536;19.066;2022-11-20T09:10:26;100118.34;;;4.38;100.00
60583;BME280;46415;47.536;19.066;2022-11-20T09:13:32;100119.47;;;4.27;100.00
60583;BME280;46415;47.536;19.066;2022-11-20T09:16:35;100125.59;;;4.20;100.00
60583;BME280;46415;47.536;19.066;2022-11-20T09:19:38;100133.19;;;4.26;100.00
60583;BME280;46415;47.536;19.066;2022-11-20T09:22:41;100133.47;;;4.12;100.00
60583;BME280;46415;47.536;19.066;2022-11-20T09:25:44;100140.44;;;4.05;100.00
60583;BME280;46415;47.536;19.066;2022-11-20T09:28:46;100135.53;;;3.96;100.00
60583;BME280;46415;47.536;19.066;2022-11-20T09:31:49;100138.06;;;3.98;100.00
60583;BME280;46415;47.536;19.066;2022-11-20T09:34:52;100129.38;;;4.05;100.00
60583;BME280;46415;47.536;19.066;2022-11-20T09:37:55;100128.19;;;4.20;100.00
60583;BME280;46415;47.536;19.066;2022-11-20T09:41:02;100125.63;;;4.18;100.00
60583;BME280;46415;47.536;19.066;2022-11-20T09:44:28;100115.88;;;4.34;100.00
60583;BME280;46415;47.536;19.066;2022-11-20T09:51:13;100124.47;;;4.33;100.00
60583;BME280;46415;47.536;19.066;2022-11-20T09:54:49;100109.94;;;4.32;100.00
60583;BME280;46415;47.536;19.066;2022-11-20T09:57:50;100103.47;;;4.53;100.00
60583;BME280;46415;47.536;19.066;2022-11-20T10:00:56;100111.69;;;4.67;100.00
60583;BME280;46415;47.536;19.066;2022-11-20T10:04:06;100103.66;;;4.80;100.00
60583;BME280;46415;47.536;19.066;2022-11-20T10:07:20;100097.31;;;4.93;100.00
60583;BME280;46415;47.536;19.066;2022-11-20T10:10:58;100094.47;;;5.04;100.00
60583;BME280;46415;47.536;19.066;2022-11-20T10:14:13;100089.59;;;5.26;100.00
60583;BME280;46415;47.536;19.066;2022-11-20T10:21:20;100072.09;;;5.69;100.00
60583;BME280;46415;47.536;19.066;2022-11-20T10:31:12;100048.56;;;5.82;99.12
60583;BME280;46415;47.536;19.066;2022-11-20T10:34:24;100049.41;;;5.82;98.73
60583;BME280;46415;47.536;19.066;2022-11-20T10:37:31;100057.34;;;6.05;97.77
60583;BME280;46415;47.536;19.066;2022-11-20T10:40:42;100050.50;;;6.04;98.71
60583;BME280;46415;47.536;19.066;2022-11-20T10:43:46;100052.62;;;5.90;99.48
60583;BME280;46415;47.536;19.066;2022-11-20T10:46:50;100053.72;;;6.11;99.46
60583;BME280;46415;47.536;19.066;2022-11-20T10:49:55;100048.00;;;6.29;98.19
60583;BME280;46415;47.536;19.066;2022-11-20T10:53:05;100049.22;;;6.18;98.41
60583;BME280;46415;47.536;19.066;2022-11-20T10:56:21;100047.84;;;6.34;95.58
60583;BME280;46415;47.536;19.066;2022-11-20T11:02:50;100053.00;;;6.07;93.59
60583;BME280;46415;47.536;19.066;2022-11-20T11:06:02;100055.13;;;6.21;95.45
60583;BME280;46415;47.536;19.066;2022-11-20T11:09:20;100068.59;;;6.31;92.68
60583;BME280;46415;47.536;19.066;2022-11-20T11:12:25;100074.41;;;6.37;90.64
60583;BME280;46415;47.536;19.066;2022-11-20T11:15:40;100082.38;;;6.28;90.87
60583;BME280;46415;47.536;19.066;2022-11-20T11:18:43;100079.41;;;6.42;90.66
60583;BME280;46415;47.536;19.066;2022-11-20T11:21:47;100088.28;;;6.32;91.48
60583;BME280;46415;47.536;19.066;2022-11-20T11:24:56;100081.78;;;6.48;90.00
60583;BME280;46415;47.536;19.066;2022-11-20T11:28:02;100078.50;;;6.43;91.62
60583;BME280;46415;47.536;19.066;2022-11-20T11:31:05;100080.50;;;6.61;91.06
60583;BME280;46415;47.536;19.066;2022-11-20T11:34:13;100086.16;;;6.72;91.15
60583;BME280;46415;47.536;19.066;2022-11-20T11:37:19;100083.88;;;6.89;89.75
60583;BME280;46415;47.536;19.066;2022-11-20T11:40:25;100071.91;;;7.12;88.76
60583;BME280;46415;47.536;19.066;2022-11-20T11:43:36;100066.91;;;7.07;89.97
60583;BME280;46415;47.536;19.066;2022-11-20T11:46:58;100067.34;;;6.95;89.66
60583;BME280;46415;47.536;19.066;2022-11-20T11:50:21;100054.69;;;6.87;91.05
60583;BME280;46415;47.536;19.066;2022-11-20T11:53:27;100063.78;;;6.73;90.14
60583;BME280;46415;47.536;19.066;2022-11-20T11:56:30;100056.97;;;6.44;91.37
60583;BME280;46415;47.536;19.066;2022-11-20T11:59:54;100045.97;;;6.39;91.91
60583;BME280;46415;47.536;19.066;2022-11-20T12:03:14;100041.19;;;6.27;92.81
60583;BME280;46415;47.536;19.066;2022-11-20T12:06:20;100031.66;;;6.02;95.52
60583;BME280;46415;47.536;19.066;2022-11-20T12:09:24;100039.75;;;5.90;97.62
60583;BME280;46415;47.536;19.066;2022-11-20T12:12:35;100038.88;;;5.91;98.97
60583;BME280;46415;47.536;19.066;2022-11-20T12:15:44;100041.31;;;5.96;96.47
60583;BME280;46415;47.536;19.066;2022-11-20T12:18:51;100046.66;;;5.90;97.27
60583;BME280;46415;47.536;19.066;2022-11-20T12:22:01;100046.81;;;5.84;98.19
60583;BME280;46415;47.536;19.066;2022-11-20T12:25:22;100051.53;;;5.99;98.06
60583;BME280;46415;47.536;19.066;2022-11-20T12:35:17;100040.81;;;6.12;96.69
60583;BME280;46415;47.536;19.066;2022-11-20T12:42:00;100025.44;;;6.09;95.91
60583;BME280;46415;47.536;19.066;2022-11-20T12:45:57;100030.37;;;6.15;95.01
60583;BME280;46415;47.536;19.066;2022-11-20T12:49:27;100033.72;;;6.19;94.96
60583;BME280;46415;47.536;19.066;2022-11-20T12:53:22;100038.31;;;6.09;96.07
60583;BME280;46415;47.536;19.066;2022-11-20T12:59:54;100039.19;;;6.08;95.69
60583;BME280;46415;47.536;19.066;2022-11-20T13:03:29;100038.88;;;5.91;96.83
60583;BME280;46415;47.536;19.066;2022-11-20T13:06:35;100043.78;;;5.99;96.77
60583;BME280;46415;47.536;19.066;2022-11-20T13:09:46;100038.34;;;6.08;97.21
60583;BME280;46415;47.536;19.066;2022-11-20T13:12:58;100047.34;;;6.23;96.83
60583;BME280;46415;47.536;19.066;2022-11-20T13:16:14;100044.19;;;6.41;95.81
60583;BME280;46415;47.536;19.066;2022-11-20T13:19:19;100047.28;;;6.52;94.96
60583;BME280;46415;47.536;19.066;2022-11-20T13:22:28;100057.19;;;6.64;94.71
60583;BME280;46415;47.536;19.066;2022-11-20T13:25:36;100048.88;;;6.81;92.92
60583;BME280;46415;47.536;19.066;2022-11-20T13:28:39;100049.38;;;6.67;93.76
60583;BME280;46415;47.536;19.066;2022-11-20T13:31:45;100046.78;;;6.67;94.72
60583;BME280;46415;47.536;19.066;2022-11-20T13:34:56;100036.87;;;6.55;95.74
60583;BME280;46415;47.536;19.066;2022-11-20T13:41:03;100032.03;;;6.18;96.42
60583;BME280;46415;47.536;19.066;2022-11-20T13:47:35;100026.31;;;6.08;98.88
60583;BME280;46415;47.536;19.066;2022-11-20T13:54:45;100007.59;;;6.03;100.00
60583;BME280;46415;47.536;19.066;2022-11-20T13:58:05;100011.22;;;5.96;100.00
60583;BME280;46415;47.536;19.066;2022-11-20T14:01:25;100011.34;;;5.93;100.00
60583;BME280;46415;47.536;19.066;2022-11-20T14:04:33;100008.47;;;6.02;99.74
60583;BME280;46415;47.536;19.066;2022-11-20T14:07:40;100007.19;;;5.89;100.00
60583;BME280;46415;47.536;19.066;2022-11-20T14:10:44;100004.66;;;5.88;99.93
60583;BME280;46415;47.536;19.066;2022-11-20T14:14:22;99993.50;;;5.87;100.00
60583;BME280;46415;47.536;19.066;2022-11-20T14:17:32;99996.78;;;5.63;100.00
60583;BME280;46415;47.536;19.066;2022-11-20T14:20:37;99993.50;;;5.58;100.00
60583;BME280;46415;47.536;19.066;2022-11-20T14:23:40;99993.03;;;5.44;100.00
60583;BME280;46415;47.536;19.066;2022-11-20T14:26:43;99999.31;;;5.35;100.00
60583;BME280;46415;47.536;19.066;2022-11-20T14:29:49;99997.84;;;5.26;100.00
60583;BME280;46415;47.536;19.066;2022-11-20T14:33:00;100005.91;;;5.13;100.00
60583;BME280;46415;47.536;19.066;2022-11-20T14:36:04;100005.72;;;5.20;100.00
60583;BME280;46415;47.536;19.066;2022-11-20T14:39:11;100007.53;;;5.17;100.00
60583;BME280;46415;47.536;19.066;2022-11-20T14:42:16;100015.81;;;5.28;100.00
60583;BME280;46415;47.536;19.066;2022-11-20T14:45:20;100023.81;;;5.17;100.00
60583;BME280;46415;47.536;19.066;2022-11-20T14:48:29;100020.59;;;5.09;100.00
60583;BME280;46415;47.536;19.066;2022-11-20T14:51:40;100022.63;;;4.98;100.00
60583;BME280;46415;47.536;19.066;2022-11-20T14:54:50;100025.47;;;4.87;100.00
60583;BME280;46415;47.536;19.066;2022-11-20T14:58:20;100024.97;;;4.73;100.00
60583;BME280;46415;47.536;19.066;2022-11-20T15:01:27;100026.22;;;4.59;100.00
60583;BME280;46415;47.536;19.066;2022-11-20T15:04:30;100029.25;;;4.40;100.00
60583;BME280;46415;47.536;19.066;2022-11-20T15:07:36;100027.47;;;4.42;100.00
60583;BME280;46415;47.536;19.066;2022-11-20T15:10:46;100033.78;;;4.29;100.00
60583;BME280;46415;47.536;19.066;2022-11-20T15:13:49;100040.03;;;4.18;100.00
60583;BME280;46415;47.536;19.066;2022-11-20T15:16:53;100038.31;;;4.18;100.00
60583;BME280;46415;47.536;19.066;2022-11-20T15:19:56;100039.50;;;4.05;100.00
60583;BME280;46415;47.536;19.066;2022-11-20T15:22:58;100035.94;;;4.10;100.00
60583;BME280;46415;47.536;19.066;2022-11-20T15:26:01;100042.19;;;3.99;100.00
60583;BME280;46415;47.536;19.066;2022-11-20T15:29:14;100033.69;;;3.97;100.00
60583;BME280;46415;47.536;19.066;2022-11-20T15:32:21;100040.56;;;3.95;100.00
60583;BME280;46415;47.536;19.066;2022-11-20T15:35:23;100041.25;;;4.03;100.00
60583;BME280;46415;47.536;19.066;2022-11-20T15:38:26;100046.50;;;3.98;100.00
60583;BME280;46415;47.536;19.066;2022-11-20T15:41:29;100039.63;;;3.99;100.00
60583;BME280;46415;47.536;19.066;2022-11-20T15:44:32;100041.66;;;3.83;100.00
60583;BME280;46415;47.536;19.066;2022-11-20T15:47:35;100049.47;;;3.79;100.00
60583;BME280;46415;47.536;19.066;2022-11-20T15:50:51;100054.59;;;3.79;100.00
60583;BME280;46415;47.536;19.066;2022-11-20T15:53:55;100056.91;;;3.92;100.00
60583;BME280;46415;47.536;19.066;2022-11-20T15:56:58;100051.16;;;3.81;100.00
60583;BME280;46415;47.536;19.066;2022-11-20T16:00:03;100047.72;;;3.81;100.00
60583;BME280;46415;47.536;19.066;2022-11-20T16:03:13;100047.72;;;3.81;100.00
60583;BME280;46415;47.536;19.066;2022-11-20T16:06:16;100045.09;;;3.84;100.00
60583;BME280;46415;47.536;19.066;2022-11-20T16:09:18;100043.38;;;3.83;100.00
60583;BME280;46415;47.536;19.066;2022-11-20T16:12:21;100047.47;;;3.93;100.00
60583;BME280;46415;47.536;19.066;2022-11-20T16:15:50;100043.13;;;3.95;100.00
60583;BME280;46415;47.536;19.066;2022-11-20T16:18:53;100045.81;;;3.89;100.00
60583;BME280;46415;47.536;19.066;2022-11-20T16:21:57;100042.66;;;3.78;100.00
60583;BME280;46415;47.536;19.066;2022-11-20T16:25:04;100039.34;;;3.73;100.00
60583;BME280;46415;47.536;19.066;2022-11-20T16:28:07;100035.22;;;3.65;100.00
60583;BME280;46415;47.536;19.066;2022-11-20T16:34:16;100037.88;;;3.61;100.00
60583;BME280;46415;47.536;19.066;2022-11-20T16:37:19;100037.72;;;3.68;100.00
60583;BME280;46415;47.536;19.066;2022-11-20T16:40:24;100037.78;;;3.65;100.00
60583;BME280;46415;47.536;19.066;2022-11-20T16:43:26;100040.28;;;3.68;100.00
60583;BME280;46415;47.536;19.066;2022-11-20T16:46:30;100037.91;;;3.59;100.00
60583;BME280;46415;47.536;19.066;2022-11-20T16:49:33;100033.84;;;3.49;100.00
60583;BME280;46415;47.536;19.066;2022-11-20T16:52:36;100036.66;;;3.37;100.00